Time;durP1;ratioP1;P1;durP2;ratioP2;P2;SDS_P1;SDS_P2;PMS_P1;PMS_P2;Temp;Humidity;BMP_temperature;BMP_pressure;BME280_temperature;BME280_humidity;BME280_pressure;Samples;Min_cycle;Max_cycle;Signal;HPM_P1;HPM_P2
2022/03/10 00:02:02;;;;;;;48.63;21.00;;;;;;;-2.04;87.53;97319.19;5004463;28;20131;-65
2022/03/10 00:04:28;;;;;;;48.88;21.45;;;;;;;-1.97;86.40;97327.75;4990071;28;20579;-63
2022/03/10 00:06:54;;;;;;;53.38;21.38;;;;;;;-1.87;85.32;97328.81;4993875;28;20141;-65
2022/03/10 00:09:19;;;;;;;51.00;21.85;;;;;;;-1.82;84.10;97337.69;4992905;28;20113;-64
2022/03/10 00:11:46;;;;;;;49.17;19.85;;;;;;;-1.81;84.42;97335.81;4984301;28;20038;-64
2022/03/10 00:14:12;;;;;;;45.90;19.75;;;;;;;-1.71;83.59;97341.19;4992834;28;20046;-66
2022/03/10 00:16:38;;;;;;;45.65;19.48;;;;;;;-1.85;83.80;97338.22;4998214;28;20050;-65
2022/03/10 00:19:03;;;;;;;48.67;19.42;;;;;;;-1.76;83.78;97346.56;4986809;28;20038;-67
2022/03/10 00:21:29;;;;;;;47.20;19.83;;;;;;;-1.77;83.86;97339.56;4984568;28;20038;-62
2022/03/10 00:23:54;;;;;;;48.83;20.40;;;;;;;-1.73;84.02;97351.38;4984524;28;20093;-61
2022/03/10 00:26:19;;;;;;;52.13;21.38;;;;;;;-1.74;84.53;97350.56;4976940;28;20078;-64
2022/03/10 00:28:45;;;;;;;52.10;22.70;;;;;;;-1.73;84.43;97343.31;4983397;28;20038;-62
2022/03/10 00:31:10;;;;;;;52.53;22.55;;;;;;;-1.86;85.38;97349.25;4978782;28;20038;-65
2022/03/10 00:33:35;;;;;;;55.05;22.08;;;;;;;-1.90;86.03;97350.88;4983399;28;20038;-65
2022/03/10 00:36:01;;;;;;;56.50;22.80;;;;;;;-1.78;85.14;97351.41;4982544;28;20104;-65
2022/03/10 00:38:26;;;;;;;50.75;20.98;;;;;;;-1.78;85.39;97359.44;4976649;28;20057;-63
2022/03/10 00:40:52;;;;;;;46.47;20.13;;;;;;;-1.82;84.92;97350.31;4983974;28;20042;-63
2022/03/10 00:43:17;;;;;;;51.85;20.52;;;;;;;-1.88;84.71;97356.75;4977124;28;20045;-66
2022/03/10 00:45:43;;;;;;;54.20;21.85;;;;;;;-1.88;84.94;97351.41;4982520;28;20076;-63
2022/03/10 00:48:09;;;;;;;54.17;21.85;;;;;;;-1.97;85.59;97351.94;4977894;28;20042;-64
2022/03/10 00:50:35;;;;;;;50.47;20.13;;;;;;;-2.15;85.42;97353.28;4982854;28;20042;-65
2022/03/10 00:53:00;;;;;;;52.83;22.20;;;;;;;-2.34;85.33;97350.31;4985941;28;20046;-66
2022/03/10 00:55:26;;;;;;;57.10;22.65;;;;;;;-2.32;86.62;97353.53;4981404;28;20043;-67
2022/03/10 00:57:51;;;;;;;54.40;22.85;;;;;;;-2.48;85.69;97357.28;4984579;28;20034;-65
2022/03/10 01:00:18;;;;;;;58.35;22.38;;;;;;;-2.52;86.89;97358.88;4978032;28;20074;-66
2022/03/10 01:02:44;;;;;;;49.90;20.65;;;;;;;-2.37;87.27;97361.59;5000242;28;20050;-65
2022/03/10 01:05:10;;;;;;;50.03;22.10;;;;;;;-2.36;87.22;97360.53;4977287;28;20133;-66
2022/03/10 01:07:36;;;;;;;46.63;21.67;;;;;;;-2.38;87.07;97361.84;4982447;28;20146;-66
2022/03/10 01:10:06;;;;;;;48.63;22.05;;;;;;;-2.42;87.58;97353.53;4983136;28;20038;-63
2022/03/10 01:12:32;;;;;;;49.08;21.23;;;;;;;-2.44;87.85;97355.66;4981703;28;20042;-65
2022/03/10 01:14:57;;;;;;;54.05;21.70;;;;;;;-2.56;87.20;97350.53;4982267;28;20050;-65
2022/03/10 01:17:23;;;;;;;55.22;21.08;;;;;;;-2.54;88.26;97353.78;4977779;28;21002;-65
2022/03/10 01:19:48;;;;;;;53.42;21.67;;;;;;;-2.51;87.74;97353.25;4982497;28;20514;-63
2022/03/10 01:22:14;;;;;;;51.83;21.45;;;;;;;-2.69;87.12;97354.53;4984520;28;20070;-64
2022/03/10 01:24:41;;;;;;;50.90;20.98;;;;;;;-2.79;87.88;97351.84;4986224;28;20060;-64
2022/03/10 01:27:10;;;;;;;49.67;22.45;;;;;;;-2.79;88.93;97356.41;4988307;28;20046;-68
2022/03/10 01:29:36;;;;;;;53.05;22.67;;;;;;;-2.93;89.26;97348.84;4992515;28;20053;-64
2022/03/10 01:32:02;;;;;;;53.13;21.42;;;;;;;-2.84;89.55;97356.41;4992376;28;20041;-68
2022/03/10 01:34:27;;;;;;;55.80;21.52;;;;;;;-2.86;89.63;97356.66;4986033;28;20058;-65
2022/03/10 01:36:53;;;;;;;53.47;20.77;;;;;;;-2.87;89.87;97352.34;4987155;28;20455;-64
2022/03/10 01:39:18;;;;;;;54.95;23.13;;;;;;;-2.85;89.61;97350.22;4976695;28;20043;-66
2022/03/10 01:41:45;;;;;;;55.17;20.85;;;;;;;-2.91;89.23;97351.28;4975397;28;20066;-63
2022/03/10 01:44:11;;;;;;;54.10;21.92;;;;;;;-3.04;89.00;97362.47;4977322;28;20054;-66
2022/03/10 01:46:37;;;;;;;49.13;21.55;;;;;;;-3.06;90.40;97362.75;4975070;28;20598;-64
2022/03/10 01:49:04;;;;;;;50.40;20.77;;;;;;;-3.06;90.46;97357.41;4979993;28;20050;-68
2022/03/10 01:51:31;;;;;;;55.15;22.20;;;;;;;-3.03;90.51;97356.84;4981744;28;20034;-64
2022/03/10 01:53:57;;;;;;;47.88;21.60;;;;;;;-2.95;89.77;97363.59;4990335;28;20088;-64
2022/03/10 01:56:23;;;;;;;50.50;21.77;;;;;;;-3.01;89.86;97359.28;4977608;28;20061;-65
2022/03/10 01:58:51;;;;;;;53.28;20.67;;;;;;;-3.00;90.07;97348.31;4981948;28;20424;-65
2022/03/10 02:01:18;;;;;;;49.45;20.98;;;;;;;-2.88;89.89;97350.75;4979552;28;20088;-64
2022/03/10 02:03:44;;;;;;;56.85;21.88;;;;;;;-3.33;90.94;97349.50;4981743;28;20066;-66
2022/03/10 02:06:10;;;;;;;54.92;22.23;;;;;;;-3.28;91.44;97352.19;4976428;28;20043;-64
2022/03/10 02:11:21;;;;;;;49.17;21.55;;;;;;;-3.24;91.97;97341.75;4986286;28;20045;-63
2022/03/10 02:13:47;;;;;;;57.72;21.88;;;;;;;-3.05;90.43;97345.59;4992893;28;20095;-65
2022/03/10 02:18:58;;;;;;;50.85;21.73;;;;;;;-3.36;90.33;97345.47;4993240;28;20065;-66
2022/03/10 02:21:25;;;;;;;52.65;22.20;;;;;;;-3.63;91.02;97344.81;4994586;28;20585;-66
2022/03/10 02:23:50;;;;;;;50.72;20.67;;;;;;;-3.68;91.71;97345.56;4989243;28;20034;-65
2022/03/10 02:26:16;;;;;;;54.95;22.13;;;;;;;-3.60;91.98;97344.25;4994308;28;20048;-66
2022/03/10 02:28:42;;;;;;;49.83;21.85;;;;;;;-3.55;92.92;97344.31;5000871;28;20046;-66
2022/03/10 02:31:08;;;;;;;53.20;21.58;;;;;;;-3.52;92.93;97346.47;4999006;28;20046;-67
2022/03/10 02:33:34;;;;;;;49.13;21.85;;;;;;;-3.49;92.90;97351.31;4997984;28;20053;-66
2022/03/10 02:36:00;;;;;;;47.05;20.52;;;;;;;-3.55;91.64;97344.31;4989587;28;20058;-65
2022/03/10 02:38:25;;;;;;;53.70;21.75;;;;;;;-3.72;92.54;97347.16;4983246;28;20046;-65
2022/03/10 02:40:51;;;;;;;50.72;21.85;;;;;;;-3.86;92.37;97352.16;4982224;28;20038;-66
2022/03/10 02:43:18;;;;;;;52.10;22.17;;;;;;;-3.93;93.83;97352.38;4975356;28;20455;-65
2022/03/10 02:45:45;;;;;;;56.28;21.95;;;;;;;-3.82;94.39;97350.56;4985270;28;20128;-64
2022/03/10 02:48:10;;;;;;;48.70;21.13;;;;;;;-3.59;93.76;97351.25;4987382;28;20041;-66
2022/03/10 02:50:36;;;;;;;51.75;22.20;;;;;;;-3.53;92.95;97344.84;4999778;28;20034;-65
2022/03/10 02:53:01;;;;;;;45.85;21.00;;;;;;;-3.59;92.90;97349.38;5001108;28;20040;-66
2022/03/10 02:55:27;;;;;;;48.95;20.45;;;;;;;-3.61;91.89;97354.19;4987481;28;20434;-66
2022/03/10 02:57:52;;;;;;;50.90;19.85;;;;;;;-3.47;92.00;97354.53;4991694;28;20045;-65
2022/03/10 03:00:18;;;;;;;55.08;19.65;;;;;;;-3.55;91.97;97355.81;4986752;28;20053;-63
2022/03/10 03:02:43;;;;;;;49.33;21.05;;;;;;;-3.48;92.08;97361.75;4981380;28;20049;-64
2022/03/10 03:05:12;;;;;;;51.33;21.38;;;;;;;-3.48;91.57;97352.91;4975289;28;20096;-64
2022/03/10 03:07:38;;;;;;;45.03;19.75;;;;;;;-3.40;91.49;97349.75;4980170;28;20050;-65
2022/03/10 03:10:04;;;;;;;49.33;20.35;;;;;;;-3.55;90.45;97355.00;4978074;28;20391;-66
2022/03/10 03:12:29;;;;;;;52.72;22.05;;;;;;;-3.56;91.37;97356.09;4990749;28;20049;-61
2022/03/10 03:14:55;;;;;;;50.10;21.27;;;;;;;-3.59;91.98;97357.41;5000436;28;20445;-64
2022/03/10 03:17:20;;;;;;;50.00;20.52;;;;;;;-3.56;91.62;97356.09;4995105;28;20095;-64
2022/03/10 03:19:46;;;;;;;58.03;20.98;;;;;;;-3.36;91.42;97361.53;4999063;28;20045;-64
2022/03/10 03:22:11;;;;;;;50.10;21.05;;;;;;;-3.79;91.46;97374.16;4995396;28;20104;-65
2022/03/10 03:24:37;;;;;;;44.72;20.35;;;;;;;-3.71;92.09;97364.81;4994652;28;20043;-65
2022/03/10 03:27:02;;;;;;;45.30;19.25;;;;;;;-3.79;92.13;97363.44;4986068;28;20065;-65
2022/03/10 03:29:28;;;;;;;47.10;20.25;;;;;;;-3.71;92.12;97362.13;4988596;28;20053;-64
2022/03/10 03:31:54;;;;;;;47.72;19.85;;;;;;;-3.65;92.40;97361.13;4992333;28;20050;-65
2022/03/10 03:34:19;;;;;;;50.35;20.85;;;;;;;-3.76;92.35;97362.09;4994948;28;20038;-65
2022/03/10 03:36:46;;;;;;;51.33;20.73;;;;;;;-4.06;93.38;97369.66;4999739;28;20416;-63
2022/03/10 03:39:13;;;;;;;48.80;20.70;;;;;;;-4.29;95.62;97365.47;4991792;28;20066;-65
2022/03/10 03:41:39;;;;;;;46.03;19.88;;;;;;;-4.16;95.83;97364.25;4988006;28;20047;-66
2022/03/10 03:44:06;;;;;;;45.90;19.38;;;;;;;-4.19;94.88;97355.94;4975024;28;20039;-67
2022/03/10 03:46:32;;;;;;;49.28;20.27;;;;;;;-4.12;95.42;97361.88;4987853;28;20042;-66
2022/03/10 03:48:58;;;;;;;49.47;21.08;;;;;;;-4.25;95.44;97369.25;4980570;28;20045;-66
2022/03/10 03:51:23;;;;;;;46.30;19.52;;;;;;;-4.38;96.83;97375.00;4975234;28;20050;-65
2022/03/10 03:53:49;;;;;;;45.42;20.63;;;;;;;-4.29;97.55;97376.16;4981013;28;20046;-66
2022/03/10 03:56:15;;;;;;;45.20;19.58;;;;;;;-4.37;95.72;97375.84;4988588;28;20060;-65
2022/03/10 03:58:41;;;;;;;49.72;19.60;;;;;;;-4.35;96.34;97377.19;4994306;28;20041;-66
2022/03/10 04:01:06;;;;;;;48.72;20.63;;;;;;;-4.37;95.80;97371.28;4984070;28;20104;-66
2022/03/10 04:03:32;;;;;;;49.97;20.45;;;;;;;-4.09;96.57;97386.25;4996811;28;20507;-66
2022/03/10 04:05:58;;;;;;;49.50;20.70;;;;;;;-4.12;96.51;97391.31;4992784;28;20074;-66
2022/03/10 04:08:25;;;;;;;48.88;20.23;;;;;;;-4.35;95.15;97390.56;4999330;28;20826;-66
2022/03/10 04:10:51;;;;;;;45.05;19.20;;;;;;;-4.25;95.74;97390.66;5003270;28;20040;-65
2022/03/10 04:13:17;;;;;;;51.63;21.35;;;;;;;-4.20;95.80;97400.56;4986879;28;20527;-64
2022/03/10 04:15:42;;;;;;;45.83;19.63;;;;;;;-4.16;95.33;97392.84;4991097;28;20070;-66
2022/03/10 04:18:07;;;;;;;52.22;21.20;;;;;;;-4.15;94.76;97397.16;4978720;28;20081;-66
2022/03/10 04:20:33;;;;;;;43.58;18.95;;;;;;;-4.07;94.65;97400.19;4983191;28;20399;-65
2022/03/10 04:23:01;;;;;;;51.28;21.05;;;;;;;-4.17;94.51;97397.41;4982714;28;20042;-65
2022/03/10 04:25:26;;;;;;;52.95;21.02;;;;;;;-4.42;95.39;97396.09;4986742;28;20053;-66
2022/03/10 04:27:53;;;;;;;52.08;21.20;;;;;;;-4.47;95.79;97395.25;4998276;28;20491;-66
2022/03/10 04:30:22;;;;;;;57.15;21.48;;;;;;;-4.45;96.44;97398.47;4995921;28;20042;-66
2022/03/10 04:32:48;;;;;;;46.10;20.13;;;;;;;-4.43;97.06;97410.53;4990183;28;20113;-66
2022/03/10 04:35:17;;;;;;;53.92;21.98;;;;;;;-4.38;97.11;97403.63;4996718;28;20077;-65
2022/03/10 04:37:44;;;;;;;48.13;19.73;;;;;;;-4.33;97.41;97401.81;5001675;28;20038;-64
2022/03/10 04:40:11;;;;;;;48.67;20.85;;;;;;;-4.29;96.70;97407.44;4984405;28;20535;-65
2022/03/10 04:42:38;;;;;;;45.65;19.67;;;;;;;-4.36;96.02;97413.00;4996744;28;20053;-66
2022/03/10 04:45:05;;;;;;;48.42;20.95;;;;;;;-4.44;95.90;97414.28;5000396;28;20064;-64
2022/03/10 04:47:30;;;;;;;53.92;21.27;;;;;;;-4.56;95.44;97413.59;4991411;28;20112;-67
2022/03/10 04:49:57;;;;;;;54.65;21.83;;;;;;;-4.76;95.77;97414.19;4987175;28;20046;-68
2022/03/10 04:52:27;;;;;;;56.05;21.83;;;;;;;-4.95;97.12;97412.91;4978090;28;20057;-63
2022/03/10 04:54:53;;;;;;;48.67;19.90;;;;;;;-4.90;98.45;97411.09;4985396;28;20061;-68
2022/03/10 04:57:18;;;;;;;52.17;20.98;;;;;;;-4.93;98.15;97408.09;4996707;28;20038;-65
2022/03/10 04:59:44;;;;;;;53.15;21.95;;;;;;;-5.15;99.56;97408.91;4994409;28;20554;-67
2022/03/10 05:02:09;;;;;;;53.15;20.80;;;;;;;-5.11;99.76;97412.72;4989496;28;20052;-67
2022/03/10 05:04:35;;;;;;;52.88;22.25;;;;;;;-5.02;100.00;97411.22;5002018;28;20034;-67
2022/03/10 05:07:00;;;;;;;47.35;19.83;;;;;;;-5.07;99.09;97419.19;5001471;28;20137;-67
2022/03/10 05:09:26;;;;;;;46.00;19.33;;;;;;;-4.98;99.22;97424.09;4997522;28;20038;-68
2022/03/10 05:11:51;;;;;;;53.42;21.63;;;;;;;-4.84;98.97;97425.34;4998594;28;20041;-66
2022/03/10 05:14:16;;;;;;;51.90;21.90;;;;;;;-4.70;98.60;97423.91;4985763;28;20356;-66
2022/03/10 05:16:42;;;;;;;50.72;21.83;;;;;;;-4.77;96.93;97422.47;5002621;28;20045;-65
2022/03/10 05:19:07;;;;;;;58.00;21.67;;;;;;;-4.91;97.02;97422.84;4986933;28;20053;-65
2022/03/10 05:21:33;;;;;;;53.17;21.27;;;;;;;-5.29;99.30;97424.50;5002190;28;20050;-67
2022/03/10 05:23:58;;;;;;;54.95;22.65;;;;;;;-5.61;100.00;97427.00;5002452;28;20038;-68
2022/03/10 05:26:23;;;;;;;59.63;22.85;;;;;;;-5.81;100.00;97416.81;4994060;28;20949;-66
2022/03/10 05:28:49;;;;;;;57.38;22.45;;;;;;;-5.72;100.00;97419.91;4989380;28;20045;-68
2022/03/10 05:31:14;;;;;;;64.35;22.10;;;;;;;-5.78;100.00;97419.81;4987669;28;20096;-67
2022/03/10 05:33:39;;;;;;;55.50;22.30;;;;;;;-5.67;100.00;97425.28;5003337;28;20043;-64
2022/03/10 05:36:05;;;;;;;56.30;22.98;;;;;;;-5.46;100.00;97421.84;5013587;28;20132;-66
2022/03/10 05:38:30;;;;;;;59.40;21.73;;;;;;;-5.44;100.00;97422.44;5001520;28;20041;-66
2022/03/10 05:40:56;;;;;;;52.97;22.42;;;;;;;-5.34;100.00;97420.97;5001673;28;20045;-65
2022/03/10 05:43:21;;;;;;;60.35;22.63;;;;;;;-5.43;100.00;97416.03;4982146;28;20056;-65
2022/03/10 05:45:47;;;;;;;51.80;22.35;;;;;;;-5.52;100.00;97416.72;4986263;28;20131;-68
2022/03/10 05:48:12;;;;;;;53.08;21.83;;;;;;;-5.44;100.00;97413.59;4979452;28;20549;-65
2022/03/10 05:50:37;;;;;;;57.63;22.30;;;;;;;-5.45;100.00;97414.69;4983235;28;20038;-67
2022/03/10 05:53:03;;;;;;;53.65;20.75;;;;;;;-5.48;100.00;97405.28;4979666;28;20141;-62
2022/03/10 05:55:29;;;;;;;52.95;21.88;;;;;;;-5.52;100.00;97406.84;4979409;28;20057;-68
2022/03/10 05:57:55;;;;;;;50.13;21.30;;;;;;;-5.52;100.00;97411.38;4984424;28;20196;-65
2022/03/10 06:00:23;;;;;;;56.58;21.38;;;;;;;-5.33;100.00;97407.38;4984570;28;20031;-64
2022/03/10 06:02:49;;;;;;;54.25;22.73;;;;;;;-5.21;100.00;97409.91;4991700;28;20871;-68
2022/03/10 06:05:15;;;;;;;54.63;22.45;;;;;;;-5.09;100.00;97410.59;4987603;28;20041;-67
2022/03/10 06:07:40;;;;;;;54.47;21.48;;;;;;;-4.96;100.00;97408.63;4999672;28;20033;-67
2022/03/10 06:10:06;;;;;;;52.20;22.20;;;;;;;-4.80;100.00;97400.53;4986147;28;20041;-67
2022/03/10 06:12:32;;;;;;;59.05;23.35;;;;;;;-4.44;100.00;97411.59;4984760;28;20050;-67
2022/03/10 06:14:59;;;;;;;56.92;23.13;;;;;;;-4.02;98.27;97407.41;4984408;28;20046;-67
2022/03/10 06:17:26;;;;;;;48.55;20.73;;;;;;;-3.73;96.59;97401.75;4976311;28;20137;-66
2022/03/10 06:19:52;;;;;;;50.55;20.02;;;;;;;-3.18;94.86;97400.47;4988049;28;20033;-67
2022/03/10 06:22:22;;;;;;;46.72;20.05;;;;;;;-2.39;90.37;97403.97;4988045;28;20048;-67
2022/03/10 06:24:48;;;;;;;53.42;22.33;;;;;;;-1.52;85.29;97399.69;5000979;28;20036;-67
2022/03/10 06:27:16;;;;;;;46.13;20.88;;;;;;;-0.64;80.00;97399.13;4986904;28;20038;-65
2022/03/10 06:29:42;;;;;;;48.28;19.13;;;;;;;0.19;73.92;97397.50;4993157;28;20486;-65
2022/03/10 06:32:08;;;;;;;44.28;19.92;;;;;;;1.01;69.84;97404.03;4985654;28;20054;-67
2022/03/10 06:34:35;;;;;;;43.63;18.60;;;;;;;1.80;65.53;97400.88;4987011;28;20042;-66
2022/03/10 06:37:01;;;;;;;43.33;18.25;;;;;;;2.71;62.18;97401.56;4980612;28;20561;-66
2022/03/10 06:39:26;;;;;;;37.05;17.67;;;;;;;3.19;58.71;97395.78;4975530;28;20046;-67
2022/03/10 06:41:52;;;;;;;38.90;17.58;;;;;;;3.93;55.13;97398.28;4981096;28;20537;-67
2022/03/10 06:44:17;;;;;;;46.67;19.60;;;;;;;3.91;55.59;97410.53;4975532;28;20101;-67
2022/03/10 06:46:43;;;;;;;40.85;18.33;;;;;;;4.63;54.81;97404.19;4984325;28;20530;-67
2022/03/10 06:49:08;;;;;;;40.25;17.45;;;;;;;5.47;50.63;97407.09;4978456;28;20045;-67
2022/03/10 06:51:33;;;;;;;39.38;18.63;;;;;;;6.21;48.60;97406.25;4994800;28;20538;-67
2022/03/10 06:53:59;;;;;;;39.47;18.10;;;;;;;6.75;47.83;97408.56;4980756;28;20074;-68
2022/03/10 06:56:25;;;;;;;37.70;16.42;;;;;;;7.23;45.67;97417.56;4975288;28;20522;-68
2022/03/10 06:58:51;;;;;;;40.60;17.27;;;;;;;7.81;44.57;97406.97;4980292;28;20048;-65
2022/03/10 07:01:17;;;;;;;37.75;16.90;;;;;;;8.18;42.21;97412.66;4976278;28;20042;-67
2022/03/10 07:03:42;;;;;;;32.97;15.75;;;;;;;7.64;44.03;97411.41;4979682;28;20395;-66
2022/03/10 07:06:08;;;;;;;29.17;15.43;;;;;;;8.33;44.11;97405.78;4988255;28;20053;-65
2022/03/10 07:08:34;;;;;;;31.02;15.77;;;;;;;8.92;42.65;97412.97;5006312;28;20128;-67
2022/03/10 07:10:59;;;;;;;37.95;18.27;;;;;;;9.06;41.14;97412.66;4990617;28;20129;-66
2022/03/10 07:13:25;;;;;;;33.45;16.13;;;;;;;9.28;41.20;97423.13;4986825;28;20080;-65
2022/03/10 07:15:50;;;;;;;37.75;17.80;;;;;;;9.45;39.87;97416.66;4999688;28;20052;-67
2022/03/10 07:18:16;;;;;;;39.95;18.88;;;;;;;9.60;39.48;97414.38;4983221;28;20049;-67
2022/03/10 07:20:41;;;;;;;46.78;19.52;;;;;;;9.55;38.26;97429.09;4992569;28;20108;-68
2022/03/10 07:23:06;;;;;;;36.83;16.77;;;;;;;9.90;38.82;97415.72;4994273;28;20049;-68
2022/03/10 07:25:32;;;;;;;33.67;17.35;;;;;;;10.10;38.82;97413.16;4999254;28;20042;-67
2022/03/10 07:27:57;;;;;;;37.97;17.05;;;;;;;10.54;37.30;97413.28;5000335;28;20042;-68
2022/03/10 07:30:23;;;;;;;36.97;17.65;;;;;;;10.74;36.83;97407.94;4995560;28;20145;-66
2022/03/10 07:32:48;;;;;;;33.92;16.60;;;;;;;11.21;36.14;97407.22;4995215;28;20384;-65
2022/03/10 07:35:13;;;;;;;38.72;17.63;;;;;;;10.43;38.30;97407.50;4989697;28;20074;-66
2022/03/10 07:37:39;;;;;;;33.85;16.08;;;;;;;11.42;36.31;97409.69;5002939;28;20055;-67
2022/03/10 07:40:05;;;;;;;33.22;17.63;;;;;;;10.86;36.58;97411.41;4998843;28;20046;-64
2022/03/10 07:42:30;;;;;;;34.25;15.93;;;;;;;11.66;35.68;97405.94;5002934;28;20041;-67
2022/03/10 07:44:56;;;;;;;35.15;16.02;;;;;;;12.43;34.20;97399.00;5000770;28;20387;-68
2022/03/10 07:47:22;;;;;;;36.42;17.02;;;;;;;11.79;33.72;97399.22;4980542;28;20363;-67
2022/03/10 07:49:47;;;;;;;32.42;17.42;;;;;;;11.32;35.11;97393.75;4995710;28;20073;-66
2022/03/10 07:52:13;;;;;;;33.92;17.10;;;;;;;9.65;39.20;97395.81;4999371;28;20064;-68
2022/03/10 07:54:38;;;;;;;29.95;16.35;;;;;;;11.52;36.23;97395.41;5003687;28;20050;-68
2022/03/10 07:57:04;;;;;;;35.10;17.23;;;;;;;12.56;33.47;97385.91;4999989;28;20038;-65
2022/03/10 07:59:29;;;;;;;30.42;16.67;;;;;;;12.96;33.46;97380.00;4996260;28;20050;-68
2022/03/10 08:01:55;;;;;;;31.67;16.65;;;;;;;12.00;35.65;97385.19;4992092;28;20046;-66
2022/03/10 08:04:21;;;;;;;36.80;17.08;;;;;;;10.42;37.96;97396.91;4997629;28;20049;-68
2022/03/10 08:06:47;;;;;;;35.95;17.52;;;;;;;8.91;41.25;97397.69;5003196;28;20064;-69
2022/03/10 08:09:12;;;;;;;35.70;18.13;;;;;;;8.73;42.84;97388.88;4997867;28;20087;-67
2022/03/10 08:11:39;;;;;;;34.50;17.58;;;;;;;10.08;40.75;97385.34;4997432;28;20046;-69
2022/03/10 08:14:06;;;;;;;31.70;15.65;;;;;;;11.88;35.86;97382.53;4985556;28;20054;-66
2022/03/10 08:16:32;;;;;;;28.38;16.42;;;;;;;11.58;34.45;97391.28;4983116;28;20112;-67
2022/03/10 08:18:59;;;;;;;28.63;15.20;;;;;;;11.64;34.33;97386.31;4984023;28;20062;-67
2022/03/10 08:21:25;;;;;;;31.73;16.45;;;;;;;12.02;34.88;97379.31;4977575;28;20045;-67
2022/03/10 08:23:50;;;;;;;29.75;15.20;;;;;;;13.70;32.19;97384.38;4984419;28;20061;-66
2022/03/10 08:26:17;;;;;;;30.15;15.13;;;;;;;12.39;33.25;97374.22;4977505;28;20043;-66
2022/03/10 08:28:43;;;;;;;34.47;16.27;;;;;;;11.03;36.72;97380.13;4991386;28;20038;-68
2022/03/10 08:31:10;;;;;;;30.98;16.63;;;;;;;13.04;33.45;97371.88;4978025;28;20495;-66
2022/03/10 08:33:36;;;;;;;29.05;16.80;;;;;;;10.27;37.08;97377.31;4987862;28;20045;-68
2022/03/10 08:36:03;;;;;;;30.58;15.65;;;;;;;11.13;36.61;97372.53;4993450;28;20082;-65
2022/03/10 08:38:30;;;;;;;31.98;16.88;;;;;;;11.14;36.11;97365.91;5010058;28;20046;-67
2022/03/10 08:40:55;;;;;;;34.05;17.33;;;;;;;10.88;37.13;97367.22;5004256;28;20077;-68
2022/03/10 08:43:23;;;;;;;30.27;15.13;;;;;;;10.61;36.38;97369.66;4998014;28;20134;-67
2022/03/10 08:45:50;;;;;;;34.13;16.13;;;;;;;10.68;37.30;97361.63;4990671;28;20153;-68
2022/03/10 08:48:15;;;;;;;30.35;15.52;;;;;;;11.39;37.53;97361.81;4991335;28;20543;-68
2022/03/10 08:50:41;;;;;;;31.15;17.05;;;;;;;11.41;36.00;97366.94;4994283;28;20039;-68
2022/03/10 08:53:07;;;;;;;31.80;15.48;;;;;;;11.73;35.20;97350.44;4995678;28;20141;-66
2022/03/10 08:55:33;;;;;;;30.20;16.08;;;;;;;12.61;33.92;97345.19;5002128;28;20144;-68
2022/03/10 08:58:00;;;;;;;30.30;15.27;;;;;;;13.76;32.65;97349.84;5002790;28;20049;-67
2022/03/10 09:00:26;;;;;;;27.45;14.98;;;;;;;12.41;34.39;97352.66;4991213;28;20049;-67
2022/03/10 09:02:51;;;;;;;26.50;15.15;;;;;;;12.20;33.62;97336.56;5003177;28;20042;-65
2022/03/10 09:05:17;;;;;;;29.52;15.10;;;;;;;11.68;34.62;97340.53;4993447;28;20142;-67
2022/03/10 09:07:43;;;;;;;25.83;15.05;;;;;;;12.20;34.22;97336.56;4990841;28;20515;-65
2022/03/10 09:10:10;;;;;;;22.90;12.45;;;;;;;8.04;36.94;97347.44;4995825;28;20045;-69
2022/03/10 09:12:37;;;;;;;22.33;11.73;;;;;;;9.03;37.98;97343.06;5002441;28;20042;-66
2022/03/10 09:15:03;;;;;;;25.10;11.50;;;;;;;10.21;37.20;97340.38;5000699;28;20092;-64
2022/03/10 09:17:29;;;;;;;24.30;12.15;;;;;;;9.23;36.63;97343.31;5000074;28;20124;-67
2022/03/10 09:19:54;;;;;;;23.33;12.68;;;;;;;7.92;39.28;97331.78;4989507;28;20137;-66
2022/03/10 09:22:20;;;;;;;25.50;10.45;;;;;;;7.64;41.38;97337.00;4988935;28;20042;-66
2022/03/10 09:24:46;;;;;;;24.58;12.43;;;;;;;7.39;40.02;97336.03;4998663;28;20403;-68
2022/03/10 09:27:12;;;;;;;24.85;11.88;;;;;;;8.92;37.85;97336.47;4988470;28;20042;-66
2022/03/10 09:29:37;;;;;;;24.70;11.07;;;;;;;8.50;37.73;97333.88;4996615;28;20049;-68
2022/03/10 09:32:03;;;;;;;25.23;10.35;;;;;;;10.28;34.90;97328.81;4987765;28;20093;-65
2022/03/10 09:34:29;;;;;;;24.40;10.15;;;;;;;11.18;33.22;97331.13;4977687;28;20050;-68
2022/03/10 09:36:54;;;;;;;21.35;10.10;;;;;;;12.10;31.73;97330.84;4973700;28;20050;-64
2022/03/10 09:39:20;;;;;;;30.52;12.48;;;;;;;12.34;31.24;97333.31;4979626;28;20034;-67
2022/03/10 09:41:46;;;;;;;30.15;13.07;;;;;;;10.14;34.04;97327.28;4976423;28;20049;-69
2022/03/10 09:44:19;;;;;;;33.28;12.95;;;;;;;10.33;34.21;97318.47;4968208;28;20551;-72
2022/03/10 09:46:50;;;;;;;30.73;12.40;;;;;;;11.62;32.98;97312.56;4980513;28;20624;-66
2022/03/10 09:49:20;;;;;;;28.88;14.35;;;;;;;13.18;33.95;97308.84;4963073;28;20488;-67
2022/03/10 09:51:49;;;;;;;;;;;;;;;12.31;35.75;97305.78;4973523;28;20072;-65
2022/03/10 09:54:15;;;;;;;29.05;13.48;;;;;;;14.14;32.34;97300.38;4976285;28;20484;-65
2022/03/10 09:56:42;;;;;;;28.02;13.57;;;;;;;12.92;33.31;97293.13;4973949;28;20133;-66
2022/03/10 09:59:09;;;;;;;26.85;13.43;;;;;;;12.38;34.92;97292.97;4974123;28;20038;-65
2022/03/10 10:01:34;;;;;;;33.53;15.02;;;;;;;13.04;34.54;97294.88;4972888;28;20047;-66
2022/03/10 10:04:00;;;;;;;30.50;13.45;;;;;;;14.10;32.98;97288.53;4967785;28;20907;-65
2022/03/10 10:06:25;;;;;;;27.95;14.18;;;;;;;14.48;31.74;97290.13;4978385;28;20608;-70
2022/03/10 10:08:57;;;;;;;29.95;14.55;;;;;;;15.36;30.30;97278.69;4969204;28;20054;-65
2022/03/10 10:11:33;;;;;;;25.52;13.25;;;;;;;14.39;31.02;97295.16;4974168;28;20042;-65
2022/03/10 10:14:00;;;;;;;25.95;13.80;;;;;;;14.54;31.54;97287.81;4973047;28;20035;-65
2022/03/10 10:16:26;;;;;;;33.05;14.07;;;;;;;14.65;30.89;97288.75;4960498;28;20055;-65
2022/03/10 10:18:58;;;;;;;29.75;14.18;;;;;;;15.63;30.09;97280.03;4970508;28;20053;-66
2022/03/10 10:21:25;;;;;;;28.02;13.02;;;;;;;15.72;29.78;97282.47;4974494;28;20709;-65
2022/03/10 10:23:53;;;;;;;25.23;13.65;;;;;;;15.44;29.99;97274.81;4979652;28;20046;-68
2022/03/10 10:26:25;;;;;;;31.95;15.32;;;;;;;14.87;31.27;97262.19;4960437;28;20427;-67
2022/03/10 10:28:52;;;;;;;36.20;16.17;;;;;;;14.89;31.50;97262.59;4974446;28;20058;-69
2022/03/10 10:31:26;;;;;;;26.52;14.75;;;;;;;14.32;32.76;97268.31;4982440;28;20045;-70
2022/03/10 10:34:03;;;;;;;30.25;14.65;;;;;;;15.03;32.10;97266.63;4968285;28;20046;-69
2022/03/10 10:36:33;;;;;;;29.38;15.05;;;;;;;15.06;31.43;97265.88;4970238;28;20046;-66
2022/03/10 10:39:09;;;;;;;26.10;13.52;;;;;;;14.75;31.73;97269.91;4972500;28;20053;-67
2022/03/10 10:41:35;;;;;;;24.02;13.02;;;;;;;15.17;31.05;97260.44;4979327;28;20377;-67
2022/03/10 10:44:05;;;;;;;30.17;14.55;;;;;;;15.95;30.15;97262.84;4979427;28;20081;-66
2022/03/10 10:46:39;;;;;;;30.45;14.13;;;;;;;15.97;29.72;97254.19;4978915;28;20278;-66
2022/03/10 10:49:08;;;;;;;30.58;14.88;;;;;;;15.84;30.05;97254.53;4969053;28;20435;-73
2022/03/10 10:51:39;;;;;;;25.20;13.60;;;;;;;15.81;29.79;97255.31;4972873;28;20516;-66
2022/03/10 10:54:07;;;;;;;29.17;13.98;;;;;;;15.42;30.34;97241.28;4965960;28;20081;-69
2022/03/10 10:56:34;;;;;;;28.15;14.00;;;;;;;15.58;30.65;97244.50;4970100;28;20054;-68
2022/03/10 10:59:02;;;;;;;26.88;13.52;;;;;;;15.20;30.37;97240.34;4975267;28;20055;-66
2022/03/10 11:01:30;;;;;;;27.35;14.77;;;;;;;13.11;32.83;97243.53;4969415;28;20043;-68
2022/03/10 11:03:56;;;;;;;27.77;14.45;;;;;;;14.75;31.47;97229.38;4962683;28;20049;-68
2022/03/10 11:06:22;;;;;;;25.80;13.18;;;;;;;15.67;29.40;97231.16;4961558;28;20056;-67
2022/03/10 11:08:48;;;;;;;27.42;15.30;;;;;;;15.43;31.16;97223.53;4973361;28;20042;-68
2022/03/10 11:11:15;;;;;;;33.65;14.23;;;;;;;15.28;30.27;97222.66;4968499;28;20132;-69
2022/03/10 11:13:41;;;;;;;29.13;13.73;;;;;;;12.66;34.73;97223.19;4977924;28;20073;-66
2022/03/10 11:16:07;;;;;;;30.45;15.90;;;;;;;14.27;32.79;97208.03;4966402;28;20084;-66
2022/03/10 11:18:33;;;;;;;29.15;14.40;;;;;;;13.45;31.03;97213.41;4978740;28;20050;-65